createdAt,value
2022-08-09T00:00:25.137Z,1019.51
2022-08-09T00:01:25.202Z,1019.50
2022-08-09T00:02:25.836Z,1019.47
2022-08-09T00:04:06.004Z,1019.48
2022-08-09T00:04:34.760Z,1019.50
2022-08-09T00:06:15.822Z,1019.52
2022-08-09T00:06:25.074Z,1019.54
2022-08-09T00:07:25.031Z,1019.50
2022-08-09T00:08:32.372Z,1019.48
2022-08-09T00:09:25.024Z,1019.49
2022-08-09T00:10:24.993Z,1019.50
2022-08-09T00:11:27.689Z,1019.47
2022-08-09T00:12:25.005Z,1019.48
2022-08-09T00:13:24.956Z,1019.46
2022-08-09T00:14:36.514Z,1019.48
2022-08-09T00:15:35.518Z,1019.49
2022-08-09T00:16:26.350Z,1019.44
2022-08-09T00:18:05.940Z,1019.43
2022-08-09T00:18:24.884Z,1019.41
2022-08-09T00:19:25.161Z,1019.39
2022-08-09T00:20:24.856Z,1019.39
2022-08-09T00:21:24.851Z,1019.43
2022-08-09T00:22:24.830Z,1019.45
2022-08-09T00:23:55.642Z,1019.49
2022-08-09T00:24:24.803Z,1019.53
2022-08-09T00:25:32.857Z,1019.53
2022-08-09T00:26:32.543Z,1019.52
2022-08-09T00:27:24.772Z,1019.60
2022-08-09T00:28:27.204Z,1019.59
2022-08-09T00:30:10.396Z,1019.61
2022-08-09T00:30:30.390Z,1019.60
2022-08-09T00:31:56.827Z,1019.67
2022-08-09T00:32:27.004Z,1019.73
2022-08-09T00:33:49.003Z,1019.70
2022-08-09T00:34:24.710Z,1019.71
2022-08-09T00:35:24.661Z,1019.72
2022-08-09T00:36:29.630Z,1019.74
2022-08-09T00:37:24.647Z,1019.71
2022-08-09T00:38:24.611Z,1019.72
2022-08-09T00:40:13.864Z,1019.74
2022-08-09T00:40:31.000Z,1019.74
2022-08-09T00:44:16.260Z,1019.78
2022-08-09T00:44:30.728Z,1019.74
2022-08-09T00:44:37.503Z,1019.73
2022-08-09T00:45:36.648Z,1019.69
2022-08-09T00:46:56.914Z,1019.67
2022-08-09T00:47:39.830Z,1019.66
2022-08-09T00:48:36.597Z,1019.66
2022-08-09T00:49:38.457Z,1019.66
2022-08-09T00:50:37.818Z,1019.64
2022-08-09T00:51:47.049Z,1019.64
2022-08-09T00:52:36.951Z,1019.65
2022-08-09T00:53:36.545Z,1019.61
2022-08-09T00:54:36.738Z,1019.60
2022-08-09T00:56:05.073Z,1019.60
2022-08-09T00:56:36.492Z,1019.58
2022-08-09T00:57:36.472Z,1019.63
2022-08-09T00:58:36.610Z,1019.59
2022-08-09T00:59:41.610Z,1019.61
2022-08-09T01:00:37.588Z,1019.61
2022-08-09T01:01:44.325Z,1019.55
2022-08-09T01:02:36.477Z,1019.61
2022-08-09T01:03:40.681Z,1019.56
2022-08-09T01:04:36.382Z,1019.57
2022-08-09T01:05:53.412Z,1019.59
2022-08-09T01:06:54.657Z,1019.54
2022-08-09T01:07:38.139Z,1019.59
2022-08-09T01:08:36.945Z,1019.56
2022-08-09T01:09:36.727Z,1019.53
2022-08-09T01:10:36.370Z,1019.53
2022-08-09T01:11:36.291Z,1019.49
2022-08-09T01:12:36.268Z,1019.49
2022-08-09T01:13:53.458Z,1019.54
2022-08-09T01:14:36.248Z,1019.51
2022-08-09T01:15:37.261Z,1019.51
2022-08-09T01:16:38.853Z,1019.49
2022-08-09T01:17:37.317Z,1019.52
2022-08-09T01:18:36.191Z,1019.47
2022-08-09T01:19:43.086Z,1019.45
2022-08-09T01:20:36.661Z,1019.44
2022-08-09T01:21:41.156Z,1019.48
2022-08-09T01:22:36.153Z,1019.46
2022-08-09T01:24:02.678Z,1019.47
2022-08-09T01:24:36.117Z,1019.47
2022-08-09T01:25:41.566Z,1019.45
2022-08-09T01:26:36.123Z,1019.45
2022-08-09T01:27:36.062Z,1019.46
2022-08-09T01:28:36.139Z,1019.49
2022-08-09T01:29:41.265Z,1019.47
2022-08-09T01:30:52.228Z,1019.47
2022-08-09T01:32:29.526Z,1019.49
2022-08-09T01:32:36.931Z,1019.50
2022-08-09T01:33:36.028Z,1019.52
2022-08-09T01:34:36.059Z,1019.56
2022-08-09T01:35:38.452Z,1019.51
2022-08-09T01:36:35.967Z,1019.58
2022-08-09T01:38:00.712Z,1019.56
2022-08-09T01:38:36.508Z,1019.59
2022-08-09T01:39:35.994Z,1019.58
2022-08-09T01:40:35.899Z,1019.58
2022-08-09T01:41:36.861Z,1019.58
2022-08-09T01:42:35.866Z,1019.62
2022-08-09T01:43:50.577Z,1019.62
2022-08-09T01:44:35.834Z,1019.54
2022-08-09T01:45:35.809Z,1019.53
2022-08-09T01:46:35.813Z,1019.59
2022-08-09T01:47:44.780Z,1019.57
2022-08-09T01:48:35.787Z,1019.56
2022-08-09T01:49:39.232Z,1019.58
2022-08-09T01:50:36.988Z,1019.57
2022-08-09T01:51:35.775Z,1019.58
2022-08-09T01:52:35.754Z,1019.61
2022-08-09T01:53:41.623Z,1019.54
2022-08-09T01:54:35.733Z,1019.58
2022-08-09T01:55:35.726Z,1019.55
2022-08-09T01:56:35.682Z,1019.58
2022-08-09T01:57:39.843Z,1019.63
2022-08-09T01:58:35.662Z,1019.62
2022-08-09T01:59:50.849Z,1019.60
2022-08-09T02:00:36.369Z,1019.63
2022-08-09T02:01:59.576Z,1019.64
2022-08-09T02:02:35.906Z,1019.61
2022-08-09T02:03:35.837Z,1019.59
2022-08-09T02:04:35.608Z,1019.63
2022-08-09T02:05:53.498Z,1019.63
2022-08-09T02:06:35.609Z,1019.66
2022-08-09T02:08:38.807Z,1019.62
2022-08-09T02:09:02.731Z,1019.64
2022-08-09T02:09:42.729Z,1019.71
2022-08-09T02:10:35.860Z,1019.69
2022-08-09T02:11:42.467Z,1019.67
2022-08-09T02:12:35.854Z,1019.69
2022-08-09T02:13:40.118Z,1019.68
2022-08-09T02:14:35.465Z,1019.71
2022-08-09T02:15:49.617Z,1019.66
2022-08-09T02:16:59.449Z,1019.70
2022-08-09T02:18:01.166Z,1019.68
2022-08-09T02:18:35.411Z,1019.65
2022-08-09T02:19:39.049Z,1019.71
2022-08-09T02:20:35.346Z,1019.71
2022-08-09T02:21:35.316Z,1019.65
2022-08-09T02:22:35.992Z,1019.67
2022-08-09T02:23:42.733Z,1019.69
2022-08-09T02:24:35.805Z,1019.70
2022-08-09T02:25:42.589Z,1019.67
2022-08-09T02:26:35.252Z,1019.68
2022-08-09T02:27:57.504Z,1019.72
2022-08-09T02:28:35.237Z,1019.69
2022-08-09T02:29:35.314Z,1019.68
2022-08-09T02:30:35.215Z,1019.70
2022-08-09T02:31:36.180Z,1019.66
2022-08-09T02:32:35.195Z,1019.68
2022-08-09T02:33:38.397Z,1019.75
2022-08-09T02:34:40.821Z,1019.73
2022-08-09T02:36:01.823Z,1019.77
2022-08-09T02:36:35.123Z,1019.76
2022-08-09T02:37:36.619Z,1019.75
2022-08-09T02:38:35.422Z,1019.73
2022-08-09T02:39:42.021Z,1019.74
2022-08-09T02:40:35.144Z,1019.71
2022-08-09T02:41:35.041Z,1019.68
2022-08-09T02:42:35.283Z,1019.68
2022-08-09T02:43:42.391Z,1019.67
2022-08-09T02:44:35.047Z,1019.68
2022-08-09T02:45:35.070Z,1019.67
2022-08-09T02:46:34.977Z,1019.64
2022-08-09T02:47:57.442Z,1019.68
2022-08-09T02:48:34.953Z,1019.68
2022-08-09T02:49:38.746Z,1019.70
2022-08-09T02:50:34.930Z,1019.69
2022-08-09T02:51:39.991Z,1019.70
2022-08-09T02:52:35.346Z,1019.72
2022-08-09T02:53:34.885Z,1019.69
2022-08-09T02:54:34.989Z,1019.68
2022-08-09T02:55:46.823Z,1019.72
2022-08-09T02:56:34.900Z,1019.70
2022-08-09T02:57:59.708Z,1019.69
2022-08-09T02:58:36.611Z,1019.69
2022-08-09T02:59:36.414Z,1019.68
2022-08-09T03:00:34.845Z,1019.66
2022-08-09T03:02:05.745Z,1019.67
2022-08-09T03:02:35.165Z,1019.62
2022-08-09T03:04:05.777Z,1019.63
2022-08-09T03:04:34.757Z,1019.63
2022-08-09T03:05:35.033Z,1019.64
2022-08-09T03:06:34.778Z,1019.60
2022-08-09T03:07:34.681Z,1019.59
2022-08-09T03:08:34.738Z,1019.57
2022-08-09T03:09:34.738Z,1019.60
2022-08-09T03:10:34.700Z,1019.58
2022-08-09T03:12:10.573Z,1019.57
2022-08-09T03:12:34.856Z,1019.59
2022-08-09T03:13:44.024Z,1019.59
2022-08-09T03:14:34.630Z,1019.59
2022-08-09T03:15:40.688Z,1019.60
2022-08-09T03:16:37.393Z,1019.62
2022-08-09T03:17:34.555Z,1019.60
2022-08-09T03:18:34.591Z,1019.64
2022-08-09T03:19:52.699Z,1019.61
2022-08-09T03:20:34.534Z,1019.63
2022-08-09T03:21:36.523Z,1019.63
2022-08-09T03:22:42.299Z,1019.63
2022-08-09T03:23:34.486Z,1019.59
2022-08-09T03:24:42.533Z,1019.63
2022-08-09T03:26:03.240Z,1019.64
2022-08-09T03:26:34.450Z,1019.66
2022-08-09T03:27:44.754Z,1019.68
2022-08-09T03:28:34.418Z,1019.66
2022-08-09T03:29:35.784Z,1019.68
2022-08-09T03:30:36.838Z,1019.71
2022-08-09T03:31:34.385Z,1019.74
2022-08-09T03:32:36.828Z,1019.67
2022-08-09T03:33:52.964Z,1019.67
2022-08-09T03:34:34.386Z,1019.74
2022-08-09T03:36:11.160Z,1019.68
2022-08-09T03:36:34.487Z,1019.68
2022-08-09T03:37:54.681Z,1019.67
2022-08-09T03:38:55.292Z,1019.67
2022-08-09T03:39:38.076Z,1019.67
2022-08-09T03:40:34.259Z,1019.66
2022-08-09T03:41:45.990Z,1019.69
2022-08-09T03:42:34.428Z,1019.70
2022-08-09T03:43:34.311Z,1019.65
2022-08-09T03:44:34.234Z,1019.63
2022-08-09T03:46:13.592Z,1019.70
2022-08-09T03:46:34.641Z,1019.66
2022-08-09T03:47:36.681Z,1019.63
2022-08-09T03:48:34.709Z,1019.70
2022-08-09T03:49:35.878Z,1019.67
2022-08-09T03:50:34.224Z,1019.70
2022-08-09T03:51:55.924Z,1019.70
2022-08-09T03:52:34.609Z,1019.72
2022-08-09T03:53:37.658Z,1019.67
2022-08-09T03:54:34.405Z,1019.73
2022-08-09T03:55:36.198Z,1019.71
2022-08-09T03:56:34.114Z,1019.68
2022-08-09T03:57:34.047Z,1019.73
2022-08-09T03:58:34.113Z,1019.72
2022-08-09T03:59:53.061Z,1019.75
2022-08-09T04:00:34.209Z,1019.75
2022-08-09T04:01:34.033Z,1019.73
2022-08-09T04:02:34.317Z,1019.77
2022-08-09T04:03:46.454Z,1019.68
2022-08-09T04:04:38.612Z,1019.71
2022-08-09T04:05:40.406Z,1019.76
2022-08-09T04:06:33.934Z,1019.75
2022-08-09T04:07:52.404Z,1019.76
2022-08-09T04:08:33.903Z,1019.74
2022-08-09T04:09:41.966Z,1019.76
2022-08-09T04:10:33.902Z,1019.76
2022-08-09T04:11:33.924Z,1019.73
2022-08-09T04:12:34.459Z,1019.80
2022-08-09T04:13:44.899Z,1019.77
2022-08-09T04:15:00.515Z,1019.76
2022-08-09T04:15:42.588Z,1019.70
2022-08-09T04:16:33.804Z,1019.74
2022-08-09T04:17:33.924Z,1019.71
2022-08-09T04:18:33.789Z,1019.72
2022-08-09T04:19:51.018Z,1019.71
2022-08-09T04:20:33.767Z,1019.78
2022-08-09T04:21:36.355Z,1019.79
2022-08-09T04:22:33.880Z,1019.78
2022-08-09T04:23:33.693Z,1019.78
2022-08-09T04:24:33.696Z,1019.77
2022-08-09T04:25:33.690Z,1019.76
2022-08-09T04:26:37.796Z,1019.79
2022-08-09T04:27:33.664Z,1019.82
2022-08-09T04:28:36.396Z,1019.79
2022-08-09T04:29:33.618Z,1019.82
2022-08-09T04:30:33.652Z,1019.83
2022-08-09T04:31:37.671Z,1019.80
2022-08-09T04:32:34.097Z,1019.79
2022-08-09T04:33:33.634Z,1019.84
2022-08-09T04:34:33.616Z,1019.86
2022-08-09T04:35:33.572Z,1019.85
2022-08-09T04:36:33.568Z,1019.85
2022-08-09T04:37:45.092Z,1019.85
2022-08-09T04:38:33.574Z,1019.85
2022-08-09T04:39:33.519Z,1019.88
2022-08-09T04:40:36.525Z,1019.86
2022-08-09T04:41:43.412Z,1019.83
2022-08-09T04:42:33.881Z,1019.86
2022-08-09T04:43:35.821Z,1019.85
2022-08-09T04:44:33.487Z,1019.82
2022-08-09T04:45:36.115Z,1019.83
2022-08-09T04:46:36.639Z,1019.86
2022-08-09T04:47:58.720Z,1019.82
2022-08-09T04:48:33.786Z,1019.87
2022-08-09T04:49:54.781Z,1019.84
2022-08-09T04:50:37.629Z,1019.84
2022-08-09T04:51:33.452Z,1019.86
2022-08-09T04:52:33.616Z,1019.91
2022-08-09T04:53:33.309Z,1019.87
2022-08-09T04:54:33.298Z,1019.88
2022-08-09T04:55:39.059Z,1019.89
2022-08-09T04:56:33.344Z,1019.85
2022-08-09T04:57:53.957Z,1019.89
2022-08-09T04:58:33.870Z,1019.88
2022-08-09T04:59:33.259Z,1019.89
2022-08-09T05:00:34.473Z,1019.90
2022-08-09T05:01:33.284Z,1019.96
2022-08-09T05:02:33.369Z,1019.99
2022-08-09T05:03:42.512Z,1020.02
2022-08-09T05:04:33.292Z,1020.05
2022-08-09T05:05:51.760Z,1020.05
2022-08-09T05:06:35.696Z,1020.07
2022-08-09T05:07:33.146Z,1020.06
2022-08-09T05:08:33.165Z,1020.06
2022-08-09T05:09:49.380Z,1020.09
2022-08-09T05:10:33.106Z,1020.10
2022-08-09T05:11:35.895Z,1020.09
2022-08-09T05:12:33.484Z,1020.08
2022-08-09T05:13:33.921Z,1020.08
2022-08-09T05:14:33.100Z,1020.11
2022-08-09T05:15:39.298Z,1020.10
2022-08-09T05:16:33.039Z,1020.10
2022-08-09T05:18:55.366Z,1020.08
2022-08-09T05:19:03.493Z,1020.05
2022-08-09T05:19:45.941Z,1020.06
2022-08-09T05:20:33.098Z,1020.05
2022-08-09T05:21:46.429Z,1020.04
2022-08-09T05:22:36.017Z,1020.10
2022-08-09T05:24:01.325Z,1020.06
2022-08-09T05:24:32.983Z,1020.13
2022-08-09T05:25:32.940Z,1020.10
2022-08-09T05:26:36.378Z,1020.12
2022-08-09T05:27:32.912Z,1020.15
2022-08-09T05:28:32.923Z,1020.13
2022-08-09T05:29:35.406Z,1020.17
2022-08-09T05:30:33.053Z,1020.09
2022-08-09T05:31:37.090Z,1020.12
2022-08-09T05:32:33.006Z,1020.12
2022-08-09T05:33:33.295Z,1020.08
2022-08-09T05:34:32.941Z,1020.07
2022-08-09T05:35:33.137Z,1020.13
2022-08-09T05:36:32.832Z,1020.08
2022-08-09T05:37:47.481Z,1020.12
2022-08-09T05:38:32.778Z,1020.06
2022-08-09T05:39:36.119Z,1020.10
2022-08-09T05:40:32.826Z,1020.06
2022-08-09T05:41:32.752Z,1020.07
2022-08-09T05:42:33.053Z,1020.11
2022-08-09T05:43:32.819Z,1020.09
2022-08-09T05:44:34.799Z,1020.07
2022-08-09T05:45:32.643Z,1020.10
2022-08-09T05:46:32.666Z,1020.08
2022-08-09T05:47:33.113Z,1020.07
2022-08-09T05:48:33.326Z,1020.11
2022-08-09T05:49:33.879Z,1020.13
2022-08-09T05:51:10.097Z,1020.12
2022-08-09T05:51:43.154Z,1020.11
2022-08-09T05:52:32.963Z,1020.08
2022-08-09T05:53:34.012Z,1020.15
2022-08-09T05:54:32.565Z,1020.15
2022-08-09T05:55:32.584Z,1020.15
2022-08-09T05:56:32.577Z,1020.08
2022-08-09T05:57:51.006Z,1020.16
2022-08-09T05:58:32.553Z,1020.15
2022-08-09T05:59:32.510Z,1020.10
2022-08-09T06:00:32.929Z,1020.13
2022-08-09T06:01:34.095Z,1020.16
2022-08-09T06:02:32.729Z,1020.08
2022-08-09T06:03:43.690Z,1020.07
2022-08-09T06:04:34.993Z,1020.07
2022-08-09T06:05:57.519Z,1020.13
2022-08-09T06:06:32.411Z,1020.11
2022-08-09T06:07:32.490Z,1020.12
2022-08-09T06:08:32.417Z,1020.12
2022-08-09T06:09:55.201Z,1020.16
2022-08-09T06:10:32.405Z,1020.14
2022-08-09T06:11:40.609Z,1020.16
2022-08-09T06:12:32.357Z,1020.17
2022-08-09T06:13:33.618Z,1020.19
2022-08-09T06:14:32.287Z,1020.25
2022-08-09T06:15:32.351Z,1020.21
2022-08-09T06:16:32.267Z,1020.18
2022-08-09T06:17:40.230Z,1020.22
2022-08-09T06:18:32.250Z,1020.19
2022-08-09T06:19:32.217Z,1020.17
2022-08-09T06:20:32.209Z,1020.13
2022-08-09T06:21:32.234Z,1020.17
2022-08-09T06:22:32.479Z,1020.16
2022-08-09T06:23:55.170Z,1020.18
2022-08-09T06:24:32.185Z,1020.17
2022-08-09T06:25:32.142Z,1020.22
2022-08-09T06:26:32.163Z,1020.22
2022-08-09T06:27:42.542Z,1020.21
2022-08-09T06:28:32.239Z,1020.22
2022-08-09T06:29:32.066Z,1020.27
2022-08-09T06:30:32.176Z,1020.28
2022-08-09T06:31:39.239Z,1020.28
2022-08-09T06:32:53.082Z,1020.20
2022-08-09T06:33:41.022Z,1020.27
2022-08-09T06:34:32.149Z,1020.26
2022-08-09T06:35:35.798Z,1020.25
2022-08-09T06:36:32.029Z,1020.30
2022-08-09T06:37:32.037Z,1020.28
2022-08-09T06:38:37.752Z,1020.33
2022-08-09T06:39:49.238Z,1020.34
2022-08-09T06:40:32.043Z,1020.35
2022-08-09T06:41:39.752Z,1020.38
2022-08-09T06:42:33.637Z,1020.43
2022-08-09T06:43:34.181Z,1020.37
2022-08-09T06:44:31.894Z,1020.41
2022-08-09T06:46:08.062Z,1020.37
2022-08-09T06:46:40.017Z,1020.33
2022-08-09T06:47:41.821Z,1020.34
2022-08-09T06:48:31.908Z,1020.37
2022-08-09T06:50:11.381Z,1020.30
2022-08-09T06:50:32.054Z,1020.30
2022-08-09T06:51:31.776Z,1020.38
2022-08-09T06:52:32.090Z,1020.42
2022-08-09T06:53:33.172Z,1020.37
2022-08-09T06:54:31.760Z,1020.31
2022-08-09T06:55:31.750Z,1020.33
2022-08-09T06:56:31.800Z,1020.33
2022-08-09T06:58:02.165Z,1020.35
2022-08-09T07:00:54.990Z,1020.33
2022-08-09T07:01:02.879Z,1020.38
2022-08-09T07:01:08.978Z,1020.38
2022-08-09T07:02:08.989Z,1020.42
2022-08-09T07:03:08.892Z,1020.36
2022-08-09T07:04:10.460Z,1020.40
2022-08-09T07:05:08.882Z,1020.36
2022-08-09T07:06:08.921Z,1020.38
2022-08-09T07:07:11.888Z,1020.39
2022-08-09T07:08:08.862Z,1020.35
2022-08-09T07:09:53.042Z,1020.28
2022-08-09T07:10:22.298Z,1020.29
2022-08-09T07:11:12.298Z,1020.34
2022-08-09T07:12:13.621Z,1020.26
2022-08-09T07:13:27.646Z,1020.27
2022-08-09T07:14:08.874Z,1020.25
2022-08-09T07:16:36.310Z,1020.25
2022-08-09T07:16:49.805Z,1020.29
2022-08-09T07:17:08.730Z,1020.27
2022-08-09T07:18:10.241Z,1020.29
2022-08-09T07:19:08.823Z,1020.33
2022-08-09T07:20:08.684Z,1020.35
2022-08-09T07:21:08.720Z,1020.29
2022-08-09T07:22:08.645Z,1020.35
2022-08-09T07:23:18.118Z,1020.35
2022-08-09T07:24:08.649Z,1020.36
2022-08-09T07:25:09.685Z,1020.42
2022-08-09T07:26:08.593Z,1020.39
2022-08-09T07:27:10.945Z,1020.37
2022-08-09T07:28:08.562Z,1020.39
2022-08-09T07:29:13.303Z,1020.38
2022-08-09T07:30:08.549Z,1020.35
2022-08-09T07:31:08.629Z,1020.35
2022-08-09T07:32:08.563Z,1020.43
2022-08-09T07:33:12.448Z,1020.38
2022-08-09T07:34:08.511Z,1020.35
2022-08-09T07:35:11.489Z,1020.33
2022-08-09T07:36:08.464Z,1020.36
2022-08-09T07:37:10.921Z,1020.29
2022-08-09T07:38:08.432Z,1020.31
2022-08-09T07:39:11.638Z,1020.31
2022-08-09T07:40:08.479Z,1020.28
2022-08-09T07:41:12.069Z,1020.31
2022-08-09T07:42:08.405Z,1020.33
2022-08-09T07:43:16.524Z,1020.29
2022-08-09T07:44:08.384Z,1020.33
2022-08-09T07:45:22.723Z,1020.35
2022-08-09T07:46:08.419Z,1020.40
2022-08-09T07:47:08.306Z,1020.38
2022-08-09T07:48:08.296Z,1020.34
2022-08-09T07:49:08.396Z,1020.34
2022-08-09T07:50:09.438Z,1020.37
2022-08-09T07:52:02.583Z,1020.39
2022-08-09T07:52:17.159Z,1020.38
2022-08-09T07:53:08.238Z,1020.39
2022-08-09T07:54:08.620Z,1020.41
2022-08-09T07:55:09.123Z,1020.38
2022-08-09T07:56:08.251Z,1020.38
2022-08-09T07:57:11.771Z,1020.37
2022-08-09T07:58:13.247Z,1020.37
2022-08-09T07:59:14.145Z,1020.35
2022-08-09T08:00:08.868Z,1020.34
2022-08-09T08:01:11.357Z,1020.35
2022-08-09T08:02:08.937Z,1020.32
2022-08-09T08:03:08.674Z,1020.40
2022-08-09T08:04:10.433Z,1020.33
2022-08-09T08:05:17.952Z,1020.28
2022-08-09T08:06:08.101Z,1020.31
2022-08-09T08:07:15.013Z,1020.29
2022-08-09T08:09:01.275Z,1020.32
2022-08-09T08:09:18.350Z,1020.31
2022-08-09T08:10:10.873Z,1020.29
2022-08-09T08:12:10.349Z,1020.23
2022-08-09T08:12:29.544Z,1020.22
2022-08-09T08:13:10.393Z,1020.25
2022-08-09T08:14:07.944Z,1020.27
2022-08-09T08:15:07.965Z,1020.23
2022-08-09T08:16:07.967Z,1020.23
2022-08-09T08:17:08.931Z,1020.24
2022-08-09T08:18:07.890Z,1020.21
2022-08-09T08:19:07.993Z,1020.25
2022-08-09T08:20:12.911Z,1020.25
2022-08-09T08:21:08.026Z,1020.28
2022-08-09T08:22:08.127Z,1020.34
2022-08-09T08:23:16.951Z,1020.32
2022-08-09T08:24:11.969Z,1020.35
2022-08-09T08:25:13.261Z,1020.40
2022-08-09T08:26:08.323Z,1020.35
2022-08-09T08:27:16.638Z,1020.32
2022-08-09T08:28:07.850Z,1020.29
2022-08-09T08:29:07.767Z,1020.25
2022-08-09T08:30:07.779Z,1020.22
2022-08-09T08:31:10.602Z,1020.22
2022-08-09T08:32:07.735Z,1020.26
2022-08-09T08:33:07.701Z,1020.27
2022-08-09T08:34:07.690Z,1020.30
2022-08-09T08:35:07.683Z,1020.34
2022-08-09T08:36:07.650Z,1020.35
2022-08-09T08:37:07.652Z,1020.34
2022-08-09T08:38:11.421Z,1020.34
2022-08-09T08:39:10.623Z,1020.28
2022-08-09T08:40:07.843Z,1020.33
2022-08-09T08:41:07.586Z,1020.35
2022-08-09T08:42:07.640Z,1020.38
2022-08-09T08:43:13.205Z,1020.35
2022-08-09T08:44:07.569Z,1020.40
2022-08-09T08:45:11.861Z,1020.47
2022-08-09T08:46:31.741Z,1020.42
2022-08-09T08:47:13.205Z,1020.43
2022-08-09T08:48:10.135Z,1020.42
2022-08-09T08:49:07.475Z,1020.37
2022-08-09T08:50:07.469Z,1020.32
2022-08-09T08:51:07.459Z,1020.31
2022-08-09T08:52:10.067Z,1020.29
2022-08-09T08:53:15.702Z,1020.29
2022-08-09T08:54:07.417Z,1020.30
2022-08-09T08:55:07.533Z,1020.28
2022-08-09T08:56:07.439Z,1020.29
2022-08-09T08:57:11.353Z,1020.25
2022-08-09T08:58:07.371Z,1020.29
2022-08-09T08:59:07.954Z,1020.25
2022-08-09T09:00:08.011Z,1020.20
2022-08-09T09:01:08.958Z,1020.21
2022-08-09T09:02:07.521Z,1020.21
2022-08-09T09:03:12.070Z,1020.21
2022-08-09T09:04:07.450Z,1020.22
2022-08-09T09:05:11.959Z,1020.23
2022-08-09T09:06:07.289Z,1020.24
2022-08-09T09:07:07.937Z,1020.19
2022-08-09T09:08:07.235Z,1020.20
2022-08-09T09:09:21.327Z,1020.19
2022-08-09T09:10:09.035Z,1020.19
2022-08-09T09:11:07.200Z,1020.23
2022-08-09T09:12:16.454Z,1020.19
2022-08-09T09:13:09.514Z,1020.26
2022-08-09T09:14:07.198Z,1020.24
2022-08-09T09:15:08.135Z,1020.26
2022-08-09T09:16:07.224Z,1020.25
2022-08-09T09:17:16.384Z,1020.23
2022-08-09T09:18:07.111Z,1020.26
2022-08-09T09:19:40.089Z,1020.26
2022-08-09T09:20:07.090Z,1020.24
2022-08-09T09:21:07.159Z,1020.25
2022-08-09T09:22:07.883Z,1020.24
2022-08-09T09:23:07.145Z,1020.27
2022-08-09T09:24:14.296Z,1020.35
2022-08-09T09:26:05.096Z,1020.31
2022-08-09T09:26:16.834Z,1020.30
2022-08-09T09:28:04.986Z,1020.25
2022-08-09T09:28:11.773Z,1020.26
2022-08-09T09:29:11.013Z,1020.29
2022-08-09T09:30:14.129Z,1020.33
2022-08-09T09:31:07.078Z,1020.26
2022-08-09T09:32:15.087Z,1020.27
2022-08-09T09:33:13.721Z,1020.25
2022-08-09T09:34:07.041Z,1020.27
2022-08-09T09:35:09.179Z,1020.30
2022-08-09T09:36:19.828Z,1020.32
2022-08-09T09:37:06.852Z,1020.32
2022-08-09T09:38:06.855Z,1020.28
2022-08-09T09:39:06.856Z,1020.27
2022-08-09T09:40:27.912Z,1020.31
2022-08-09T09:44:12.706Z,1020.32
2022-08-09T09:45:06.870Z,1020.27
2022-08-09T09:49:13.608Z,1020.30
2022-08-09T09:50:15.935Z,1020.34
2022-08-09T09:54:14.226Z,1020.31
2022-08-09T10:15:51.099Z,1020.20
2022-08-09T10:22:33.341Z,1020.09
2022-08-09T10:40:50.027Z,1020.14
2022-08-09T10:41:49.480Z,1020.13
2022-08-09T10:42:48.177Z,1020.11
2022-08-09T10:43:59.500Z,1020.09
2022-08-09T10:44:48.122Z,1020.11
2022-08-09T10:45:58.342Z,1020.10
2022-08-09T10:46:55.782Z,1020.13
2022-08-09T10:48:20.379Z,1020.10
2022-08-09T10:48:48.061Z,1020.09
2022-08-09T10:49:51.378Z,1020.06
2022-08-09T10:50:48.074Z,1020.11
2022-08-09T10:51:48.094Z,1020.11
2022-08-09T10:52:48.101Z,1020.09
2022-08-09T10:53:54.613Z,1020.09
2022-08-09T10:54:48.016Z,1020.05
2022-08-09T10:55:57.860Z,1020.06
2022-08-09T10:56:47.958Z,1020.04
2022-08-09T10:57:51.724Z,1020.03
2022-08-09T10:58:49.468Z,1020.06
2022-08-09T10:59:58.114Z,1020.03
2022-08-09T11:01:10.761Z,1020.01
2022-08-09T11:03:28.009Z,1020.02
2022-08-09T11:03:57.242Z,1020.01
2022-08-09T11:04:29.783Z,1020.07
2022-08-09T11:05:30.529Z,1019.95
2022-08-09T11:06:27.552Z,1020.07
2022-08-09T11:07:27.531Z,1020.02
2022-08-09T11:08:33.209Z,1020.10
2022-08-09T11:09:27.492Z,1020.03
2022-08-09T11:10:27.504Z,1020.10
2022-08-09T11:11:27.504Z,1020.05
2022-08-09T11:12:29.772Z,1020.01
2022-08-09T11:13:49.891Z,1019.97
2022-08-09T11:14:28.035Z,1020.00
2022-08-09T11:15:33.725Z,1020.01
2022-08-09T11:16:34.942Z,1020.07
2022-08-09T11:17:27.474Z,1020.00
2022-08-09T11:18:27.427Z,1020.00
2022-08-09T11:20:11.650Z,1019.98
2022-08-09T11:20:27.408Z,1020.03
2022-08-09T11:21:27.334Z,1020.04
2022-08-09T11:22:27.328Z,1020.01
2022-08-09T11:23:30.230Z,1019.97
2022-08-09T11:24:27.335Z,1019.95
2022-08-09T11:25:44.680Z,1019.91
2022-08-09T11:26:27.368Z,1019.92
2022-08-09T11:28:04.791Z,1019.87
2022-08-09T11:28:30.679Z,1019.89
2022-08-09T11:30:05.143Z,1019.90
2022-08-09T11:30:32.550Z,1019.87
2022-08-09T11:31:36.373Z,1019.84
2022-08-09T11:32:27.272Z,1019.92
2022-08-09T11:36:38.399Z,1019.78
2022-08-09T11:42:48.455Z,1019.64
2022-08-09T11:43:47.254Z,1019.82
2022-08-09T11:44:47.243Z,1019.76
2022-08-09T11:58:02.102Z,1019.68
2022-08-09T11:58:54.288Z,1019.64
2022-08-09T12:16:37.334Z,1019.55
2022-08-09T12:17:27.661Z,1019.56
2022-08-09T12:18:13.476Z,1019.62
2022-08-09T12:19:13.476Z,1019.59
2022-08-09T12:41:09.762Z,1019.36
2022-08-09T12:49:38.793Z,1019.36
2022-08-09T12:50:39.786Z,1019.30
2022-08-09T12:51:52.663Z,1019.32
2022-08-09T12:59:23.433Z,1019.27
2022-08-09T13:00:12.042Z,1019.32
2022-08-09T13:01:09.935Z,1019.26
2022-08-09T13:02:09.924Z,1019.26
2022-08-09T13:03:24.440Z,1019.22
2022-08-09T13:18:02.925Z,1019.14
2022-08-09T13:18:27.165Z,1019.14
2022-08-09T13:19:22.863Z,1019.09
2022-08-09T13:33:06.216Z,1019.01
2022-08-09T13:35:34.563Z,1019.02
2022-08-09T13:53:22.120Z,1018.97
2022-08-09T13:54:41.666Z,1018.88
2022-08-09T13:55:21.918Z,1018.85
2022-08-09T13:56:23.009Z,1018.83
2022-08-09T13:57:36.521Z,1018.81
2022-08-09T13:58:21.850Z,1018.87
2022-08-09T14:00:52.525Z,1018.82
2022-08-09T14:01:56.564Z,1018.78
2022-08-09T14:02:42.710Z,1018.76
2022-08-09T14:04:03.769Z,1018.78
2022-08-09T14:04:34.255Z,1018.74
2022-08-09T14:06:02.062Z,1018.78
2022-08-09T14:06:36.922Z,1018.78
2022-08-09T14:07:42.065Z,1018.76
2022-08-09T14:08:34.081Z,1018.77
2022-08-09T14:10:50.635Z,1018.76
2022-08-09T14:30:36.255Z,1018.72
2022-08-09T14:30:59.139Z,1018.78
2022-08-09T14:31:52.160Z,1018.70
2022-08-09T14:32:43.184Z,1018.69
2022-08-09T14:33:42.962Z,1018.65
2022-08-09T14:34:42.982Z,1018.63
2022-08-09T14:35:52.875Z,1018.67
2022-08-09T14:36:43.114Z,1018.65
2022-08-09T14:38:02.711Z,1018.67
2022-08-09T14:38:42.928Z,1018.67
2022-08-09T14:39:47.769Z,1018.58
2022-08-09T14:41:01.786Z,1018.59
2022-08-09T14:41:42.904Z,1018.60
2022-08-09T14:42:43.150Z,1018.63
2022-08-09T14:43:47.590Z,1018.65
2022-08-09T14:44:59.112Z,1018.57
2022-08-09T14:46:58.275Z,1018.56
2022-08-09T14:47:27.509Z,1018.61
2022-08-09T14:47:57.463Z,1018.63
2022-08-09T14:48:42.747Z,1018.64
2022-08-09T14:50:01.572Z,1018.64
2022-08-09T14:50:42.784Z,1018.63
2022-08-09T14:51:42.865Z,1018.62
2022-08-09T14:52:42.731Z,1018.63
2022-08-09T14:53:48.246Z,1018.60
2022-08-09T14:54:42.741Z,1018.59
2022-08-09T14:55:50.063Z,1018.62
2022-08-09T14:56:57.483Z,1018.60
2022-08-09T14:57:43.799Z,1018.53
2022-08-09T14:58:44.018Z,1018.60
2022-08-09T14:59:46.744Z,1018.61
2022-08-09T15:00:48.550Z,1018.57
2022-08-09T15:01:42.658Z,1018.60
2022-08-09T15:02:42.591Z,1018.64
2022-08-09T15:03:42.621Z,1018.64
2022-08-09T15:04:42.554Z,1018.58
2022-08-09T15:05:50.311Z,1018.61
2022-08-09T15:06:42.533Z,1018.53
2022-08-09T15:07:43.729Z,1018.54
2022-08-09T15:08:42.491Z,1018.55
2022-08-09T15:10:07.604Z,1018.55
2022-08-09T15:10:42.540Z,1018.61
2022-08-09T15:11:45.490Z,1018.57
2022-08-09T15:12:44.931Z,1018.55
2022-08-09T15:13:56.320Z,1018.55
2022-08-09T15:14:42.458Z,1018.60
2022-08-09T15:15:43.789Z,1018.55
2022-08-09T15:16:42.372Z,1018.57